Latest Weather Observations for Maatsuyker Island

IDT60801

Issued at 12:31 pm EDT Sunday 14 February 2016 (issued every 30 minutes, with the page automatically refreshed every 10 minutes)

About weather observations | Map of weather stations | Latest weather observations for TAS | Other Formats
Station Details ID: 094041 Name: MAATSUYKER ISLAND LIGHTHOUSE Lat: -43.66 Lon: 146.27 Height: 146.5 m
Data from the previous 72 hours. | See also: Recent months at Maatsuyker Island
Date/Time
EDT
Temp
°C
App
Temp
°C
Dew
Point
Rel
Hum
%
Delta-T
°C
Wind Press
QNH
hPa
Press
MSL
hPa
Rain
since 9 am
mm
Dir
 
Spd
km/h
Gust
km/h
Spd
kts
Gust
kts
14/12:30pm 13.5 1.3 10.3 81 1.7 NNW 65 80 35 43 998.7 - 6.8
14/12:12pm 12.1 -2.0 9.6 85 1.3 NNW 74 93 40 50 998.6 - 6.8
14/12:00pm 13.2 -1.6 9.9 80 1.7 NNW 78 93 42 50 998.0 997.9 6.6
14/11:53am 13.6 -0.1 9.6 77 2.1 NNW 72 91 39 49 997.6 - 6.6
14/11:30am 12.9 0.7 10.4 85 1.3 NNW 65 78 35 42 998.8 - 6.6
14/11:00am 11.2 -2.7 9.0 86 1.1 NNW 72 83 39 45 998.5 - 6.4
14/10:52am 11.2 -7.2 8.6 84 1.3 NW 95 113 51 61 998.5 - 6.2
14/10:40am 11.6 -7.1 9.4 86 1.1 NW 98 107 53 58 998.2 - 5.4
14/10:38am 11.7 -2.4 9.8 88 1.0 NW 74 96 40 52 998.7 - 5.4
14/10:35am 10.7 -2.6 8.9 89 0.9 NW 69 74 37 40 998.8 - 5.4
14/10:30am 8.4 -8.7 7.6 95 0.4 NW 87 111 47 60 998.3 - 5.2
14/10:29am 7.6 -10.7 7.2 97 0.2 NW 93 111 50 60 997.7 - 5.0
14/10:28am 8.0 -10.5 8.0 100 0.0 NW 95 111 51 60 998.4 - 4.0
14/10:27am 12.0 0.3 10.7 92 0.7 NW 63 106 34 57 998.8 - 2.4
14/10:26am 13.0 2.4 10.5 85 1.3 NW 57 82 31 44 999.1 - 2.2
14/10:00am 11.2 0.9 8.2 82 1.5 NNW 52 67 28 36 999.6 - 2.2
14/09:53am 10.9 -0.2 8.1 83 1.4 NNW 56 74 30 40 999.6 - 2.2
14/09:50am 11.2 -0.1 9.4 89 0.9 NNW 59 74 32 40 999.1 - 2.2
14/09:49am 11.5 -5.2 9.3 86 1.1 NW 87 107 47 58 998.8 - 2.0
14/09:30am 11.7 -5.2 10.0 89 0.9 NW 89 102 48 55 997.9 - 1.2
14/09:24am 11.6 -4.9 10.1 90 0.8 WNW 87 95 47 51 999.2 - 0.6
14/09:19am 12.1 0.8 9.4 83 1.4 WNW 59 78 32 42 1000.1 - 0.0
14/09:15am 12.0 0.3 8.0 76 2.0 WNW 59 63 32 34 1000.1 - 0.0
14/09:00am 13.7 3.0 7.9 68 2.9 NNW 54 67 29 36 999.7 999.6 11.4
14/08:38am 14.1 2.6 8.6 69 2.8 NNW 59 78 32 42 998.9 - 11.4
14/08:30am 13.9 1.9 9.7 76 2.2 NNW 63 78 34 42 999.0 - 11.4
14/08:07am 13.8 0.5 8.9 72 2.5 NW 69 87 37 47 999.0 - 11.4
14/08:00am 13.9 -0.8 8.8 71 2.6 NW 76 87 41 47 999.0 - 11.4
14/07:34am 13.5 2.5 10.7 83 1.5 NNW 59 70 32 38 999.3 - 11.4
14/07:30am 13.0 5.4 10.5 85 1.3 NNW 41 61 22 33 999.5 - 11.4
14/07:29am 12.8 5.6 10.7 87 1.1 NNW 39 57 21 31 999.6 - 11.2
14/07:00am 12.2 3.3 9.1 81 1.6 NNW 46 61 25 33 999.5 - 11.2
14/06:36am 11.1 0.4 7.9 81 1.6 NNW 54 72 29 39 999.5 - 11.0
14/06:30am 11.0 -1.0 8.2 83 1.4 NNW 61 78 33 42 999.4 - 10.8
14/06:21am 10.7 -2.4 8.3 85 1.2 NNW 67 78 36 42 999.0 - 10.6
14/06:16am 10.8 -6.0 8.6 86 1.1 NW 87 106 47 57 998.9 - 10.4
14/06:12am 11.8 -6.6 6.8 71 2.4 NW 93 106 50 57 998.1 - 10.2
14/06:06am 13.3 0.7 9.0 75 2.2 NW 65 89 35 48 998.8 - 10.0
14/06:00am 13.8 3.3 10.4 80 1.8 W 56 70 30 38 999.1 999.0 10.0
14/05:48am 13.7 2.5 9.7 77 2.1 NW 59 78 32 42 998.7 - 10.0
14/05:30am 13.5 0.5 8.6 72 2.5 NW 67 80 36 43 998.7 - 10.0
14/05:17am 13.5 0.5 10.1 80 1.8 NW 69 74 37 40 998.6 - 10.0
14/05:00am 13.1 4.3 11.0 87 1.1 NW 48 57 26 31 999.4 - 10.0
14/04:30am 12.5 1.6 11.0 90 0.8 NW 59 70 32 38 999.3 - 10.0
14/04:19am 12.4 0.4 10.9 90 0.8 NW 65 72 35 39 999.2 - 10.0
14/04:00am 12.1 -4.3 10.4 89 0.9 NW 87 96 47 52 998.6 - 9.4
14/03:47am 12.7 0.0 11.4 92 0.7 NW 69 95 37 51 998.8 - 9.2
14/03:41am 12.8 -0.2 10.9 88 1.0 NW 70 74 38 40 999.2 - 8.0
14/03:32am 12.8 4.0 11.1 89 0.9 WNW 48 57 26 31 1000.0 - 7.8
14/03:30am 13.2 6.5 11.1 87 1.1 NNW 37 57 20 31 1000.1 - 7.8
14/03:29am 13.3 7.0 10.9 85 1.3 NNW 35 57 19 31 999.8 - 7.8
14/03:00am 13.5 6.0 9.6 77 2.0 NNW 39 50 21 27 1000.2 1000.1 6.4
14/02:32am 13.5 6.5 9.9 79 1.9 NNW 37 57 20 31 1000.2 - 6.4
14/02:30am 13.6 7.1 10.4 81 1.7 NNW 35 44 19 24 1000.3 - 6.4
14/02:00am 13.8 6.8 10.0 78 2.0 NNW 37 50 20 27 1000.7 - 6.4
14/01:30am 13.9 6.8 9.7 76 2.2 NNW 37 50 20 27 1001.0 - 6.4
14/01:00am 13.7 6.8 8.8 72 2.5 NNW 35 50 19 27 1001.2 - 6.4
14/12:31am 13.8 4.2 9.6 76 2.2 NNW 50 69 27 37 1001.3 - 6.4
14/12:30am 13.9 3.8 8.8 71 2.6 NNW 52 69 28 37 1001.2 - 6.4
14/12:12am 13.6 1.7 8.5 71 2.6 NW 61 72 33 39 1001.2 - 6.4
14/12:10am 13.1 5.0 10.2 82 1.5 NNW 43 65 23 35 1001.5 - 6.2
14/12:00am 13.2 5.7 10.7 85 1.3 NNW 41 52 22 28 1001.8 1001.7 6.2
 
Date/Time
EDT
Temp
°C
App
Temp
°C
Dew
Point
Rel
Hum
%
Delta-T
°C
Wind Press
QNH
hPa
Press
MSL
hPa
Rain
since 9 am
mm
Dir
 
Spd
km/h
Gust
km/h
Spd
kts
Gust
kts
13/11:44pm 12.7 4.4 10.2 85 1.3 NNW 44 54 24 29 1002.0 - 6.2
13/11:35pm 13.0 0.9 10.7 86 1.2 NW 65 74 35 40 1001.6 - 6.2
13/11:32pm 13.9 7.0 9.0 72 2.5 NNW 35 57 19 31 1002.3 - 6.0
13/11:30pm 13.9 7.4 8.8 71 2.6 NNW 33 43 18 23 1002.3 - 6.0
13/11:00pm 13.9 7.5 8.6 70 2.7 NNW 32 43 17 23 1002.9 - 6.0
13/10:30pm 14.2 5.5 7.8 65 3.2 NNW 43 54 23 29 1002.8 - 6.0
13/10:00pm 14.2 5.0 7.8 65 3.2 NW 46 56 25 30 1003.3 - 6.0
13/09:30pm 14.0 3.9 7.4 64 3.3 NW 50 56 27 30 1003.1 - 6.0
13/09:00pm 13.8 4.5 7.6 66 3.1 NW 46 56 25 30 1002.9 1002.7 6.0
13/08:30pm 13.6 3.5 7.6 67 3.0 NW 50 59 27 32 1002.8 - 6.0
13/08:00pm 13.6 3.1 8.7 72 2.5 NW 54 61 29 33 1002.3 - 6.0
13/07:30pm 13.6 2.8 9.8 78 2.0 NW 57 65 31 35 1001.7 - 6.0
13/07:00pm 13.7 2.4 10.9 83 1.5 NW 61 70 33 38 1001.5 - 6.0
13/06:30pm 14.1 5.4 12.5 90 0.9 WNW 50 57 27 31 1001.4 - 6.0
13/06:00pm 14.2 5.4 13.3 94 0.5 NW 52 59 28 32 1001.5 1001.4 6.0
13/05:34pm 14.4 6.0 13.5 94 0.5 NW 50 69 27 37 1001.7 - 5.4
13/05:30pm 14.5 6.5 13.4 93 0.6 NNW 48 57 26 31 1001.4 - 5.4
13/05:00pm 14.1 6.4 13.4 96 0.4 NW 46 54 25 29 1001.7 - 5.4
13/04:30pm 13.9 4.6 13.2 96 0.4 NW 54 61 29 33 1001.5 - 5.2
13/04:00pm 14.3 5.3 14.1 99 0.1 NW 54 65 29 35 1001.7 - 4.6
13/03:30pm 14.1 4.1 13.7 97 0.2 NW 59 70 32 38 1001.4 - 3.2
13/03:00pm 14.6 4.8 14.3 98 0.2 NW 59 78 32 42 1001.1 1001.0 2.8
13/02:47pm 16.7 6.9 14.3 86 1.4 NNW 59 78 32 42 1001.1 - 0.0
13/02:30pm 17.7 6.7 13.1 74 2.6 NNW 63 76 34 41 1000.8 - 0.0
13/02:00pm 17.3 7.2 13.4 78 2.2 NNW 59 74 32 40 1001.1 - 0.0
13/01:30pm 18.0 7.3 12.9 72 2.9 NNW 61 74 33 40 1001.1 - 0.0
13/01:11pm 18.0 7.6 12.5 70 3.1 NNW 59 78 32 42 1000.9 - 0.0
13/01:00pm 18.0 8.0 12.5 70 3.1 NNW 57 72 31 39 1001.0 - 0.0
13/12:53pm 18.3 8.9 12.6 69 3.2 NNW 54 72 29 39 1001.2 - 0.0
13/12:30pm 17.8 8.8 12.7 72 2.9 NNW 52 67 28 36 1001.4 - 0.0
13/12:00pm 17.9 7.8 12.2 69 3.2 NNW 57 72 31 39 1001.5 1001.4 0.0
13/11:47am 17.8 7.8 12.1 69 3.2 NNW 56 74 30 40 1001.3 - 0.0
13/11:30am 18.1 9.3 12.2 68 3.3 NNW 50 63 27 34 1002.0 - 0.0
13/11:18am 17.6 8.3 11.8 69 3.2 NNW 52 70 28 38 1002.0 - 0.0
13/11:00am 17.7 7.7 12.1 69 3.1 NNW 56 72 30 39 1002.0 - 0.0
13/10:30am 17.3 7.3 12.1 71 2.9 NNW 56 76 30 41 1002.4 - 0.0
13/10:25am 17.5 8.2 11.9 69 3.1 NNW 52 70 28 38 1002.4 - 0.0
13/10:00am 17.4 8.3 11.4 68 3.3 NNW 50 63 27 34 1002.7 - 0.0
13/09:31am 17.2 8.1 11.2 68 3.3 NNW 50 69 27 37 1003.0 - 0.0
13/09:30am 17.1 7.6 11.0 67 3.3 NNW 52 69 28 37 1002.9 - 0.0
13/09:15am 17.0 8.1 10.5 65 3.5 NNW 48 67 26 36 1002.9 - 0.0
13/09:00am 16.9 7.8 11.4 70 3.0 NW 50 57 27 31 1003.1 1002.9 0.0
13/08:49am 16.7 8.9 11.2 70 3.0 NNW 43 63 23 34 1003.0 - 0.0
13/08:30am 16.6 8.9 11.5 72 2.8 NNW 43 57 23 31 1003.1 - 0.0
13/08:00am 16.4 8.8 11.9 75 2.5 NNW 43 54 23 29 1003.1 - 0.0
13/07:30am 16.6 7.9 11.3 71 2.9 NNW 48 63 26 34 1003.0 - 0.0
13/07:00am 16.5 5.5 12.0 75 2.5 NNW 61 76 33 41 1003.0 - 0.0
13/06:30am 16.5 4.5 11.2 71 2.9 NNW 65 80 35 43 1002.8 - 0.0
13/06:00am 16.3 7.4 11.9 75 2.4 W 50 72 27 39 1003.1 1002.9 0.0
13/05:54am 16.2 7.0 12.2 77 2.2 NNW 52 72 28 39 1002.9 - 0.0
13/05:30am 16.2 8.4 13.0 81 1.8 NNW 46 57 25 31 1003.4 - 0.0
13/05:00am 16.4 9.3 12.3 77 2.3 NNW 41 59 22 32 1004.0 - 0.0
13/04:52am 16.2 10.2 12.0 76 2.3 NNW 35 59 19 32 1003.9 - 0.0
13/04:30am 16.1 10.7 12.1 77 2.2 NNW 32 41 17 22 1004.3 - 0.0
13/04:00am 15.8 10.9 12.6 81 1.8 N 30 39 16 21 1004.4 - 0.0
13/03:30am 15.8 10.3 12.4 80 1.9 NNW 33 41 18 22 1004.8 - 0.0
13/03:00am 15.7 9.8 12.3 80 1.9 NNW 35 46 19 25 1005.2 1005.1 0.0
13/02:30am 15.8 9.8 12.2 79 2.0 NNW 35 48 19 26 1005.7 - 0.0
13/02:00am 15.8 11.0 12.8 82 1.7 NNW 30 39 16 21 1006.5 - 0.0
13/01:30am 15.7 11.6 12.8 83 1.6 NNW 26 33 14 18 1007.0 - 0.0
13/01:00am 15.8 12.1 12.8 82 1.7 NNW 24 32 13 17 1007.8 - 0.0
13/12:30am 15.9 10.7 12.7 81 1.8 NNW 32 39 17 21 1007.8 - 0.0
13/12:00am 16.0 8.7 12.8 81 1.8 NW 43 48 23 26 1008.2 1008.1 0.0
 
Date/Time
EDT
Temp
°C
App
Temp
°C
Dew
Point
Rel
Hum
%
Delta-T
°C
Wind Press
QNH
hPa
Press
MSL
hPa
Rain
since 9 am
mm
Dir
 
Spd
km/h
Gust
km/h
Spd
kts
Gust
kts
12/11:30pm 16.0 8.6 12.4 79 2.0 NW 43 52 23 28 1008.5 - 0.0
12/11:00pm 16.3 10.6 12.9 80 1.9 NW 35 43 19 23 1009.1 - 0.0
12/10:30pm 16.4 10.9 12.4 77 2.2 NW 33 39 18 21 1009.7 - 0.0
12/10:00pm 16.6 11.6 12.1 75 2.5 NW 30 33 16 18 1010.0 - 0.0
12/09:30pm 16.4 13.7 13.6 83 1.6 NNW 20 24 11 13 1010.1 - 0.0
12/09:00pm 16.6 15.3 13.8 83 1.6 N 13 17 7 9 1010.2 1010.1 0.0
12/08:30pm 16.9 15.5 12.2 74 2.6 N 11 15 6 8 1010.3 - 0.0
12/08:00pm 18.1 18.8 12.2 68 3.3 CALM 0 0 0 0 1010.4 - 0.0
12/07:30pm 18.5 16.8 11.2 62 4.0 ENE 11 15 6 8 1010.6 - 0.0
12/07:00pm 18.4 17.5 11.5 64 3.8 NE 7 17 4 9 1010.9 - 0.0
12/06:30pm 18.2 18.0 13.7 75 2.6 NW 7 15 4 8 1011.3 - 0.0
12/06:00pm 18.7 18.5 13.5 72 3.0 N 7 15 4 8 1011.5 1011.4 0.0
12/05:30pm 18.2 18.2 13.7 75 2.6 NNE 6 11 3 6 1012.1 - 0.0
12/05:00pm 18.9 18.9 13.7 72 3.0 NE 6 15 3 8 1012.2 - 0.0
12/04:30pm 19.6 18.4 13.9 69 3.3 SE 13 17 7 9 1012.8 - 0.0
12/04:00pm 18.7 18.1 13.6 72 2.9 SE 9 17 5 9 1013.0 - 0.0
12/03:30pm 18.6 17.9 13.3 71 3.0 E 9 17 5 9 1013.4 - 0.0
12/03:00pm 18.5 18.1 13.0 70 3.1 ENE 7 11 4 6 1013.8 1013.7 0.0
12/02:30pm 19.2 17.1 13.6 70 3.2 SE 17 24 9 13 1014.4 - 0.0
12/02:00pm 19.2 16.5 13.4 69 3.3 SSE 20 24 11 13 1015.2 - 0.0
12/01:30pm 18.9 16.1 13.3 70 3.2 SE 20 26 11 14 1015.3 - 0.0
12/01:00pm 17.9 17.6 12.7 71 2.9 N 6 9 3 5 1015.3 - 0.0
12/12:30pm 17.3 16.6 12.1 71 2.9 NNE 7 13 4 7 1015.7 - 0.0
12/12:00pm 17.9 15.4 12.3 70 3.1 SE 17 22 9 12 1016.2 1016.2 0.0
12/11:30am 17.9 17.0 12.7 71 2.9 ESE 9 20 5 11 1016.6 - 0.0
12/11:00am 17.0 16.4 11.7 71 2.9 N 6 11 3 6 1017.1 - 0.0
12/10:30am 16.5 15.6 11.3 71 2.8 NNW 7 11 4 6 1017.2 - 0.0
12/10:00am 16.0 15.1 11.4 74 2.5 ENE 7 15 4 8 1017.7 - 0.0
12/09:30am 14.9 11.4 11.0 77 2.1 S 20 24 11 13 1018.2 - 0.0
12/09:00am 15.0 13.7 11.1 77 2.1 SE 9 20 5 11 1018.3 1018.2 0.2
12/08:30am 14.8 12.7 11.3 79 1.9 SSE 13 17 7 9 1018.2 - 0.2
12/08:00am 14.4 14.0 11.2 81 1.7 E 4 15 2 8 1018.1 - 0.2
12/07:30am 14.0 14.3 11.0 82 1.6 CALM 0 6 0 3 1017.8 - 0.2
12/07:00am 13.3 13.1 10.4 82 1.5 NNE 2 7 1 4 1017.6 - 0.2
12/06:30am 13.4 13.5 10.3 81 1.6 CALM 0 6 0 3 1017.4 - 0.2
12/06:00am 13.5 12.4 10.6 82 1.5 N 7 7 4 4 1017.3 1017.2 0.2
12/05:30am 13.6 13.4 10.4 81 1.7 N 2 9 1 5 1017.1 - 0.2
12/05:00am 13.8 13.9 10.2 79 1.9 CALM 0 0 0 0 1017.3 - 0.2
12/04:30am 13.9 14.0 10.1 78 2.0 CALM 0 6 0 3 1017.6 - 0.2
12/04:00am 13.9 12.2 9.9 77 2.1 WNW 9 11 5 6 1017.8 - 0.2
12/03:30am 13.8 13.4 9.7 76 2.1 W 2 7 1 4 1017.9 - 0.2
12/03:00am 14.0 12.7 9.8 76 2.2 WNW 7 9 4 5 1018.1 1018.0 0.2
12/02:30am 14.0 12.3 10.0 77 2.1 W 9 13 5 7 1018.3 - 0.2
12/02:00am 14.0 11.6 10.2 78 2.0 WNW 13 19 7 10 1018.6 - 0.2
12/01:30am 13.9 11.0 9.8 76 2.1 NW 15 19 8 10 1018.6 - 0.2
12/01:00am 13.6 11.4 9.3 75 2.2 NNW 11 15 6 8 1018.9 - 0.2
12/12:30am 13.5 11.3 9.2 75 2.2 NW 11 15 6 8 1018.7 - 0.2
12/12:00am 14.0 11.3 8.9 71 2.6 WNW 13 19 7 10 1019.0 1018.9 0.2
 
Date/Time
EDT
Temp
°C
App
Temp
°C
Dew
Point
Rel
Hum
%
Delta-T
°C
Wind Press
QNH
hPa
Press
MSL
hPa
Rain
since 9 am
mm
Dir
 
Spd
km/h
Gust
km/h
Spd
kts
Gust
kts
11/11:30pm 13.9 10.4 8.6 70 2.7 WNW 17 20 9 11 1019.0 - 0.2
11/11:00pm 14.0 10.5 8.7 70 2.7 WNW 17 22 9 12 1019.2 - 0.2
11/10:30pm 14.2 9.7 8.7 69 2.8 NW 22 26 12 14 1019.2 - 0.2
11/10:00pm 14.1 10.0 8.6 69 2.8 WNW 20 24 11 13 1019.0 - 0.2
11/09:30pm 14.1 10.0 8.6 69 2.8 WNW 20 22 11 12 1018.7 - 0.2
11/09:00pm 14.0 10.0 8.4 69 2.8 WNW 19 24 10 13 1018.4 1018.3 0.2
11/08:30pm 14.2 9.7 8.5 68 2.9 WNW 22 28 12 15 1018.3 - 0.2
11/08:00pm 14.6 10.1 8.7 67 3.0 WNW 22 28 12 15 1018.1 - 0.2
11/07:30pm 15.4 9.9 9.0 65 3.3 WNW 28 32 15 17 1017.9 - 0.2
11/07:00pm 16.3 10.1 9.2 63 3.7 WNW 32 37 17 20 1017.5 - 0.2
11/06:30pm 16.8 11.0 9.3 61 3.9 WNW 30 35 16 19 1017.4 - 0.2
11/06:00pm 17.1 11.3 9.3 60 4.1 WNW 30 35 16 19 1017.2 1017.1 0.2
11/05:30pm 17.4 11.5 9.0 58 4.4 WNW 30 33 16 18 1017.0 - 0.2
11/05:00pm 17.4 11.7 8.3 55 4.7 NW 28 32 15 17 1017.1 - 0.2
11/04:30pm 17.5 10.8 8.1 54 4.8 NW 33 37 18 20 1017.1 - 0.2
11/04:00pm 17.8 11.7 8.1 53 5.0 NW 30 35 16 19 1017.3 - 0.2
11/03:30pm 17.6 10.9 7.3 51 5.2 NW 32 35 17 19 1017.4 - 0.2
11/03:00pm 17.8 11.2 7.8 52 5.1 NW 32 37 17 20 1017.4 1017.3 0.2
11/02:30pm 17.6 10.3 7.1 50 5.3 NW 35 37 19 20 1017.5 - 0.2
11/02:00pm 17.5 10.6 7.4 51 5.1 NW 33 39 18 21 1017.4 - 0.2
11/01:30pm 17.5 10.6 7.2 51 5.2 NW 33 39 18 21 1017.4 - 0.2
11/01:00pm 16.5 8.3 6.6 52 4.9 NW 39 43 21 23 1017.3 - 0.2

Other Formats:

Comma delimited format used in spreadsheet applications
http://www.bom.gov.au/fwo/IDT60801/IDT60801.94962.axf

JavaScript Object Notation format (JSON) in row-major order
http://www.bom.gov.au/fwo/IDT60801/IDT60801.94962.json